sensor_id;sensor_type;location;lat;lon;timestamp;P1;durP1;ratioP1;P2;durP2;ratioP2
63930;SDS011;50111;48.114;-2.066;2022-09-01T00:01:27;10.90;;;7.43;;
63930;SDS011;50111;48.114;-2.066;2022-09-01T00:03:54;10.27;;;6.70;;
63930;SDS011;50111;48.114;-2.066;2022-09-01T00:06:23;9.05;;;6.25;;
63930;SDS011;50111;48.114;-2.066;2022-09-01T00:08:49;9.48;;;6.93;;
63930;SDS011;50111;48.114;-2.066;2022-09-01T00:11:16;10.68;;;6.25;;
63930;SDS011;50111;48.114;-2.066;2022-09-01T00:13:42;11.05;;;6.95;;
63930;SDS011;50111;48.114;-2.066;2022-09-01T00:16:08;9.88;;;7.18;;
63930;SDS011;50111;48.114;-2.066;2022-09-01T00:18:38;11.48;;;6.65;;
63930;SDS011;50111;48.114;-2.066;2022-09-01T00:21:06;12.23;;;7.63;;
63930;SDS011;50111;48.114;-2.066;2022-09-01T00:23:32;13.60;;;7.55;;
63930;SDS011;50111;48.114;-2.066;2022-09-01T00:25:59;10.57;;;6.70;;
63930;SDS011;50111;48.114;-2.066;2022-09-01T00:28:25;9.10;;;6.88;;
63930;SDS011;50111;48.114;-2.066;2022-09-01T00:30:51;10.98;;;7.05;;
63930;SDS011;50111;48.114;-2.066;2022-09-01T00:33:17;10.57;;;6.47;;
63930;SDS011;50111;48.114;-2.066;2022-09-01T00:35:43;9.02;;;6.82;;
63930;SDS011;50111;48.114;-2.066;2022-09-01T00:38:09;10.23;;;7.63;;
63930;SDS011;50111;48.114;-2.066;2022-09-01T00:40:35;12.10;;;7.38;;
63930;SDS011;50111;48.114;-2.066;2022-09-01T00:43:20;9.98;;;7.63;;
63930;SDS011;50111;48.114;-2.066;2022-09-01T00:45:46;11.38;;;7.75;;
63930;SDS011;50111;48.114;-2.066;2022-09-01T00:48:15;12.57;;;8.60;;
63930;SDS011;50111;48.114;-2.066;2022-09-01T00:50:41;15.05;;;8.88;;
63930;SDS011;50111;48.114;-2.066;2022-09-01T00:53:08;12.00;;;7.47;;
63930;SDS011;50111;48.114;-2.066;2022-09-01T00:55:35;11.93;;;8.88;;
63930;SDS011;50111;48.114;-2.066;2022-09-01T00:58:03;12.68;;;8.10;;
63930;SDS011;50111;48.114;-2.066;2022-09-01T01:00:30;11.60;;;8.38;;
63930;SDS011;50111;48.114;-2.066;2022-09-01T01:02:57;13.40;;;9.20;;
63930;SDS011;50111;48.114;-2.066;2022-09-01T01:05:24;14.48;;;8.60;;
63930;SDS011;50111;48.114;-2.066;2022-09-01T01:07:52;14.60;;;9.45;;
63930;SDS011;50111;48.114;-2.066;2022-09-01T01:10:19;11.98;;;9.32;;
63930;SDS011;50111;48.114;-2.066;2022-09-01T01:12:46;11.25;;;7.93;;
63930;SDS011;50111;48.114;-2.066;2022-09-01T01:15:16;12.57;;;8.37;;
63930;SDS011;50111;48.114;-2.066;2022-09-01T01:17:42;11.98;;;8.02;;
63930;SDS011;50111;48.114;-2.066;2022-09-01T01:20:08;11.93;;;7.65;;
63930;SDS011;50111;48.114;-2.066;2022-09-01T01:30:37;13.63;;;8.88;;
63930;SDS011;50111;48.114;-2.066;2022-09-01T01:33:04;13.05;;;8.90;;
63930;SDS011;50111;48.114;-2.066;2022-09-01T01:35:30;14.95;;;8.77;;
63930;SDS011;50111;48.114;-2.066;2022-09-01T01:37:58;12.20;;;8.90;;
63930;SDS011;50111;48.114;-2.066;2022-09-01T01:40:25;13.55;;;9.07;;
63930;SDS011;50111;48.114;-2.066;2022-09-01T01:42:52;16.08;;;9.23;;
63930;SDS011;50111;48.114;-2.066;2022-09-01T01:45:20;12.93;;;9.88;;
63930;SDS011;50111;48.114;-2.066;2022-09-01T01:47:48;12.48;;;8.88;;
63930;SDS011;50111;48.114;-2.066;2022-09-01T01:50:20;13.73;;;10.05;;
63930;SDS011;50111;48.114;-2.066;2022-09-01T01:52:47;12.20;;;8.88;;
63930;SDS011;50111;48.114;-2.066;2022-09-01T01:55:13;15.13;;;9.32;;
63930;SDS011;50111;48.114;-2.066;2022-09-01T01:57:43;14.02;;;8.27;;
63930;SDS011;50111;48.114;-2.066;2022-09-01T02:00:14;10.30;;;7.45;;
63930;SDS011;50111;48.114;-2.066;2022-09-01T02:02:44;11.63;;;8.30;;
63930;SDS011;50111;48.114;-2.066;2022-09-01T02:05:27;13.65;;;9.77;;
63930;SDS011;50111;48.114;-2.066;2022-09-01T02:07:55;16.30;;;10.82;;
63930;SDS011;50111;48.114;-2.066;2022-09-01T02:10:27;12.85;;;9.00;;
63930;SDS011;50111;48.114;-2.066;2022-09-01T02:12:55;13.38;;;8.95;;
63930;SDS011;50111;48.114;-2.066;2022-09-01T02:15:28;13.57;;;9.48;;
63930;SDS011;50111;48.114;-2.066;2022-09-01T02:17:54;14.13;;;9.00;;
63930;SDS011;50111;48.114;-2.066;2022-09-01T02:22:54;11.48;;;8.07;;
63930;SDS011;50111;48.114;-2.066;2022-09-01T02:25:20;12.80;;;8.73;;
63930;SDS011;50111;48.114;-2.066;2022-09-01T02:27:46;11.43;;;8.93;;
63930;SDS011;50111;48.114;-2.066;2022-09-01T02:30:15;11.25;;;8.57;;
63930;SDS011;50111;48.114;-2.066;2022-09-01T02:32:41;15.30;;;9.27;;
63930;SDS011;50111;48.114;-2.066;2022-09-01T02:35:07;15.05;;;8.50;;
63930;SDS011;50111;48.114;-2.066;2022-09-01T02:37:34;13.18;;;9.20;;
63930;SDS011;50111;48.114;-2.066;2022-09-01T02:40:00;12.75;;;8.77;;
63930;SDS011;50111;48.114;-2.066;2022-09-01T02:42:26;12.20;;;8.82;;
63930;SDS011;50111;48.114;-2.066;2022-09-01T02:44:54;12.52;;;8.55;;
63930;SDS011;50111;48.114;-2.066;2022-09-01T02:47:21;11.60;;;7.68;;
63930;SDS011;50111;48.114;-2.066;2022-09-01T02:49:51;13.82;;;9.35;;
63930;SDS011;50111;48.114;-2.066;2022-09-01T02:52:17;14.20;;;9.23;;
63930;SDS011;50111;48.114;-2.066;2022-09-01T02:54:45;10.32;;;7.82;;
63930;SDS011;50111;48.114;-2.066;2022-09-01T02:57:13;14.35;;;8.88;;
63930;SDS011;50111;48.114;-2.066;2022-09-01T02:59:39;11.43;;;9.15;;
63930;SDS011;50111;48.114;-2.066;2022-09-01T03:02:06;12.48;;;8.48;;
63930;SDS011;50111;48.114;-2.066;2022-09-01T03:04:33;10.65;;;8.23;;
63930;SDS011;50111;48.114;-2.066;2022-09-01T03:07:00;12.38;;;9.25;;
63930;SDS011;50111;48.114;-2.066;2022-09-01T03:09:26;10.57;;;8.07;;
63930;SDS011;50111;48.114;-2.066;2022-09-01T03:11:53;13.85;;;8.52;;
63930;SDS011;50111;48.114;-2.066;2022-09-01T03:14:20;12.10;;;8.13;;
63930;SDS011;50111;48.114;-2.066;2022-09-01T03:16:46;11.60;;;8.85;;
63930;SDS011;50111;48.114;-2.066;2022-09-01T03:19:12;10.35;;;8.23;;
63930;SDS011;50111;48.114;-2.066;2022-09-01T03:21:40;11.57;;;7.35;;
63930;SDS011;50111;48.114;-2.066;2022-09-01T03:24:07;11.57;;;8.00;;
63930;SDS011;50111;48.114;-2.066;2022-09-01T03:26:34;10.70;;;7.72;;
63930;SDS011;50111;48.114;-2.066;2022-09-01T03:29:00;12.02;;;7.57;;
63930;SDS011;50111;48.114;-2.066;2022-09-01T03:31:26;9.98;;;7.05;;
63930;SDS011;50111;48.114;-2.066;2022-09-01T03:33:53;9.57;;;6.70;;
63930;SDS011;50111;48.114;-2.066;2022-09-01T03:36:20;8.65;;;6.90;;
63930;SDS011;50111;48.114;-2.066;2022-09-01T03:38:47;16.55;;;8.07;;
63930;SDS011;50111;48.114;-2.066;2022-09-01T03:41:14;13.07;;;9.80;;
63930;SDS011;50111;48.114;-2.066;2022-09-01T03:43:41;10.15;;;8.07;;
63930;SDS011;50111;48.114;-2.066;2022-09-01T03:46:08;12.23;;;8.38;;
63930;SDS011;50111;48.114;-2.066;2022-09-01T03:48:40;11.75;;;7.40;;
63930;SDS011;50111;48.114;-2.066;2022-09-01T03:51:07;10.13;;;7.88;;
63930;SDS011;50111;48.114;-2.066;2022-09-01T03:53:33;10.48;;;7.18;;
63930;SDS011;50111;48.114;-2.066;2022-09-01T03:56:03;9.60;;;7.65;;
63930;SDS011;50111;48.114;-2.066;2022-09-01T03:58:30;9.93;;;7.70;;
63930;SDS011;50111;48.114;-2.066;2022-09-01T04:00:57;9.57;;;7.50;;
63930;SDS011;50111;48.114;-2.066;2022-09-01T04:03:26;16.23;;;9.00;;
63930;SDS011;50111;48.114;-2.066;2022-09-01T04:05:55;12.32;;;8.73;;
63930;SDS011;50111;48.114;-2.066;2022-09-01T04:08:22;10.10;;;8.32;;
63930;SDS011;50111;48.114;-2.066;2022-09-01T04:10:55;17.52;;;8.82;;
63930;SDS011;50111;48.114;-2.066;2022-09-01T04:13:35;9.23;;;7.45;;
63930;SDS011;50111;48.114;-2.066;2022-09-01T04:16:02;11.30;;;7.40;;
63930;SDS011;50111;48.114;-2.066;2022-09-01T04:18:34;12.25;;;8.70;;
63930;SDS011;50111;48.114;-2.066;2022-09-01T04:21:00;10.45;;;8.13;;
63930;SDS011;50111;48.114;-2.066;2022-09-01T04:23:29;13.75;;;8.73;;
63930;SDS011;50111;48.114;-2.066;2022-09-01T04:26:04;10.82;;;8.82;;
63930;SDS011;50111;48.114;-2.066;2022-09-01T04:28:38;10.10;;;8.70;;
63930;SDS011;50111;48.114;-2.066;2022-09-01T04:31:05;10.73;;;8.63;;
63930;SDS011;50111;48.114;-2.066;2022-09-01T04:33:33;10.25;;;7.78;;
63930;SDS011;50111;48.114;-2.066;2022-09-01T04:36:16;11.40;;;8.45;;
63930;SDS011;50111;48.114;-2.066;2022-09-01T04:38:44;12.23;;;8.50;;
63930;SDS011;50111;48.114;-2.066;2022-09-01T04:41:11;9.55;;;7.78;;
63930;SDS011;50111;48.114;-2.066;2022-09-01T04:43:44;13.02;;;8.95;;
63930;SDS011;50111;48.114;-2.066;2022-09-01T04:46:11;11.23;;;7.88;;
63930;SDS011;50111;48.114;-2.066;2022-09-01T04:48:38;11.07;;;7.82;;
63930;SDS011;50111;48.114;-2.066;2022-09-01T04:51:06;9.13;;;7.30;;
63930;SDS011;50111;48.114;-2.066;2022-09-01T04:53:34;10.75;;;8.32;;
63930;SDS011;50111;48.114;-2.066;2022-09-01T04:56:06;10.75;;;7.95;;
63930;SDS011;50111;48.114;-2.066;2022-09-01T04:58:33;9.88;;;7.88;;
63930;SDS011;50111;48.114;-2.066;2022-09-01T05:01:01;11.00;;;8.32;;
63930;SDS011;50111;48.114;-2.066;2022-09-01T05:03:31;9.63;;;8.13;;
63930;SDS011;50111;48.114;-2.066;2022-09-01T05:05:57;11.48;;;8.80;;
63930;SDS011;50111;48.114;-2.066;2022-09-01T05:08:26;10.68;;;8.88;;
63930;SDS011;50111;48.114;-2.066;2022-09-01T05:10:52;12.25;;;8.15;;
63930;SDS011;50111;48.114;-2.066;2022-09-01T05:13:20;9.15;;;7.80;;
63930;SDS011;50111;48.114;-2.066;2022-09-01T05:16:04;9.98;;;7.50;;
63930;SDS011;50111;48.114;-2.066;2022-09-01T05:18:30;10.02;;;7.68;;
63930;SDS011;50111;48.114;-2.066;2022-09-01T05:20:56;13.23;;;8.20;;
63930;SDS011;50111;48.114;-2.066;2022-09-01T05:23:22;10.57;;;7.80;;
63930;SDS011;50111;48.114;-2.066;2022-09-01T05:25:50;11.23;;;7.90;;
63930;SDS011;50111;48.114;-2.066;2022-09-01T05:28:19;12.02;;;8.85;;
63930;SDS011;50111;48.114;-2.066;2022-09-01T05:30:48;10.55;;;8.77;;
63930;SDS011;50111;48.114;-2.066;2022-09-01T05:33:17;11.63;;;8.33;;
63930;SDS011;50111;48.114;-2.066;2022-09-01T05:35:55;12.52;;;9.07;;
63930;SDS011;50111;48.114;-2.066;2022-09-01T05:38:25;11.90;;;8.90;;
63930;SDS011;50111;48.114;-2.066;2022-09-01T05:40:55;12.65;;;8.88;;
63930;SDS011;50111;48.114;-2.066;2022-09-01T05:45:50;13.65;;;8.88;;
63930;SDS011;50111;48.114;-2.066;2022-09-01T05:48:17;11.10;;;8.50;;
63930;SDS011;50111;48.114;-2.066;2022-09-01T05:50:45;12.68;;;8.90;;
63930;SDS011;50111;48.114;-2.066;2022-09-01T05:53:13;14.13;;;9.52;;
63930;SDS011;50111;48.114;-2.066;2022-09-01T05:55:44;13.27;;;8.98;;
63930;SDS011;50111;48.114;-2.066;2022-09-01T05:58:11;14.77;;;9.07;;
63930;SDS011;50111;48.114;-2.066;2022-09-01T06:00:42;11.70;;;8.85;;
63930;SDS011;50111;48.114;-2.066;2022-09-01T06:03:11;13.55;;;7.97;;
63930;SDS011;50111;48.114;-2.066;2022-09-01T06:05:39;12.20;;;9.00;;
63930;SDS011;50111;48.114;-2.066;2022-09-01T06:08:06;13.02;;;8.88;;
63930;SDS011;50111;48.114;-2.066;2022-09-01T06:10:37;13.32;;;9.23;;
63930;SDS011;50111;48.114;-2.066;2022-09-01T06:13:04;11.70;;;9.10;;
63930;SDS011;50111;48.114;-2.066;2022-09-01T06:15:31;12.55;;;9.65;;
63930;SDS011;50111;48.114;-2.066;2022-09-01T06:17:57;13.77;;;9.55;;
63930;SDS011;50111;48.114;-2.066;2022-09-01T06:20:24;12.82;;;9.23;;
63930;SDS011;50111;48.114;-2.066;2022-09-01T06:22:51;11.05;;;8.93;;
63930;SDS011;50111;48.114;-2.066;2022-09-01T06:25:18;14.63;;;10.15;;
63930;SDS011;50111;48.114;-2.066;2022-09-01T06:27:44;14.70;;;10.43;;
63930;SDS011;50111;48.114;-2.066;2022-09-01T06:30:12;13.40;;;10.15;;
63930;SDS011;50111;48.114;-2.066;2022-09-01T06:32:41;11.15;;;9.13;;
63930;SDS011;50111;48.114;-2.066;2022-09-01T06:35:09;12.85;;;10.15;;
63930;SDS011;50111;48.114;-2.066;2022-09-01T06:37:36;13.48;;;9.65;;
63930;SDS011;50111;48.114;-2.066;2022-09-01T06:40:03;12.90;;;8.70;;
63930;SDS011;50111;48.114;-2.066;2022-09-01T06:42:29;12.75;;;10.45;;
63930;SDS011;50111;48.114;-2.066;2022-09-01T06:44:59;14.18;;;9.65;;
63930;SDS011;50111;48.114;-2.066;2022-09-01T06:47:25;14.70;;;10.25;;
63930;SDS011;50111;48.114;-2.066;2022-09-01T06:49:52;14.32;;;8.63;;
63930;SDS011;50111;48.114;-2.066;2022-09-01T06:54:48;13.13;;;9.38;;
63930;SDS011;50111;48.114;-2.066;2022-09-01T06:57:16;12.75;;;9.35;;
63930;SDS011;50111;48.114;-2.066;2022-09-01T06:59:42;12.45;;;9.55;;
63930;SDS011;50111;48.114;-2.066;2022-09-01T07:02:08;11.88;;;8.70;;
63930;SDS011;50111;48.114;-2.066;2022-09-01T07:04:40;12.68;;;9.68;;
63930;SDS011;50111;48.114;-2.066;2022-09-01T07:07:09;14.27;;;9.57;;
63930;SDS011;50111;48.114;-2.066;2022-09-01T07:09:36;14.38;;;8.93;;
63930;SDS011;50111;48.114;-2.066;2022-09-01T07:12:03;13.23;;;9.57;;
63930;SDS011;50111;48.114;-2.066;2022-09-01T07:14:29;14.00;;;9.48;;
63930;SDS011;50111;48.114;-2.066;2022-09-01T07:16:55;13.68;;;8.82;;
63930;SDS011;50111;48.114;-2.066;2022-09-01T07:19:22;16.38;;;9.25;;
63930;SDS011;50111;48.114;-2.066;2022-09-01T07:21:50;15.93;;;9.15;;
63930;SDS011;50111;48.114;-2.066;2022-09-01T07:24:16;12.50;;;7.57;;
63930;SDS011;50111;48.114;-2.066;2022-09-01T07:26:44;15.60;;;8.85;;
63930;SDS011;50111;48.114;-2.066;2022-09-01T07:29:14;16.50;;;8.63;;
63930;SDS011;50111;48.114;-2.066;2022-09-01T07:31:42;18.42;;;8.50;;
63930;SDS011;50111;48.114;-2.066;2022-09-01T07:34:09;14.10;;;8.27;;
63930;SDS011;50111;48.114;-2.066;2022-09-01T07:36:38;15.18;;;8.95;;
63930;SDS011;50111;48.114;-2.066;2022-09-01T07:39:06;20.97;;;10.30;;
63930;SDS011;50111;48.114;-2.066;2022-09-01T07:41:32;13.20;;;8.43;;
63930;SDS011;50111;48.114;-2.066;2022-09-01T07:43:59;12.63;;;9.30;;
63930;SDS011;50111;48.114;-2.066;2022-09-01T07:46:27;17.83;;;9.05;;
63930;SDS011;50111;48.114;-2.066;2022-09-01T07:48:56;14.43;;;9.95;;
63930;SDS011;50111;48.114;-2.066;2022-09-01T07:51:23;17.52;;;10.88;;
63930;SDS011;50111;48.114;-2.066;2022-09-01T07:53:50;14.20;;;9.48;;
63930;SDS011;50111;48.114;-2.066;2022-09-01T07:56:20;16.23;;;10.85;;
63930;SDS011;50111;48.114;-2.066;2022-09-01T08:01:15;13.05;;;10.65;;
63930;SDS011;50111;48.114;-2.066;2022-09-01T08:03:43;18.30;;;11.90;;
63930;SDS011;50111;48.114;-2.066;2022-09-01T08:06:10;14.48;;;10.95;;
63930;SDS011;50111;48.114;-2.066;2022-09-01T08:08:37;16.05;;;10.77;;
63930;SDS011;50111;48.114;-2.066;2022-09-01T08:11:04;13.45;;;11.13;;
63930;SDS011;50111;48.114;-2.066;2022-09-01T08:13:30;16.20;;;11.88;;
63930;SDS011;50111;48.114;-2.066;2022-09-01T08:15:56;15.50;;;11.07;;
63930;SDS011;50111;48.114;-2.066;2022-09-01T08:18:22;14.52;;;11.38;;
63930;SDS011;50111;48.114;-2.066;2022-09-01T08:20:48;19.63;;;11.40;;
63930;SDS011;50111;48.114;-2.066;2022-09-01T08:23:16;19.30;;;11.48;;
63930;SDS011;50111;48.114;-2.066;2022-09-01T08:25:42;16.50;;;10.85;;
63930;SDS011;50111;48.114;-2.066;2022-09-01T08:28:09;21.02;;;11.45;;
63930;SDS011;50111;48.114;-2.066;2022-09-01T08:30:37;14.30;;;10.60;;
63930;SDS011;50111;48.114;-2.066;2022-09-01T08:33:03;16.08;;;11.57;;
63930;SDS011;50111;48.114;-2.066;2022-09-01T08:35:29;15.00;;;10.30;;
63930;SDS011;50111;48.114;-2.066;2022-09-01T08:37:56;14.20;;;9.32;;
63930;SDS011;50111;48.114;-2.066;2022-09-01T08:40:22;14.00;;;9.38;;
63930;SDS011;50111;48.114;-2.066;2022-09-01T08:45:30;15.55;;;9.57;;
63930;SDS011;50111;48.114;-2.066;2022-09-01T08:48:03;15.45;;;10.50;;
63930;SDS011;50111;48.114;-2.066;2022-09-01T08:50:32;17.10;;;10.07;;
63930;SDS011;50111;48.114;-2.066;2022-09-01T08:55:57;13.38;;;9.13;;
63930;SDS011;50111;48.114;-2.066;2022-09-01T08:58:25;14.90;;;8.63;;
63930;SDS011;50111;48.114;-2.066;2022-09-01T09:03:24;13.38;;;8.23;;
63930;SDS011;50111;48.114;-2.066;2022-09-01T09:11:03;17.60;;;9.50;;
63930;SDS011;50111;48.114;-2.066;2022-09-01T09:16:16;14.30;;;8.68;;
63930;SDS011;50111;48.114;-2.066;2022-09-01T09:18:47;14.75;;;9.05;;
63930;SDS011;50111;48.114;-2.066;2022-09-01T09:21:18;17.17;;;8.25;;
63930;SDS011;50111;48.114;-2.066;2022-09-01T09:23:46;15.05;;;7.82;;
63930;SDS011;50111;48.114;-2.066;2022-09-01T09:26:13;12.82;;;8.07;;
63930;SDS011;50111;48.114;-2.066;2022-09-01T09:28:39;13.20;;;8.07;;
63930;SDS011;50111;48.114;-2.066;2022-09-01T09:33:50;12.80;;;7.55;;
63930;SDS011;50111;48.114;-2.066;2022-09-01T09:36:18;14.27;;;7.72;;
63930;SDS011;50111;48.114;-2.066;2022-09-01T09:38:45;11.48;;;7.22;;
63930;SDS011;50111;48.114;-2.066;2022-09-01T09:41:15;16.35;;;7.72;;
63930;SDS011;50111;48.114;-2.066;2022-09-01T09:43:46;12.23;;;6.88;;
63930;SDS011;50111;48.114;-2.066;2022-09-01T09:51:33;12.90;;;7.40;;
63930;SDS011;50111;48.114;-2.066;2022-09-01T09:54:12;10.30;;;6.78;;
63930;SDS011;50111;48.114;-2.066;2022-09-01T09:56:38;10.18;;;6.05;;
63930;SDS011;50111;48.114;-2.066;2022-09-01T09:59:21;16.83;;;6.57;;
63930;SDS011;50111;48.114;-2.066;2022-09-01T10:01:48;10.65;;;6.18;;
63930;SDS011;50111;48.114;-2.066;2022-09-01T10:04:29;11.15;;;6.20;;
63930;SDS011;50111;48.114;-2.066;2022-09-01T10:06:56;10.98;;;5.70;;
63930;SDS011;50111;48.114;-2.066;2022-09-01T10:11:50;14.13;;;7.05;;
63930;SDS011;50111;48.114;-2.066;2022-09-01T10:14:18;11.30;;;6.18;;
63930;SDS011;50111;48.114;-2.066;2022-09-01T10:16:46;9.93;;;5.78;;
63930;SDS011;50111;48.114;-2.066;2022-09-01T10:19:12;9.45;;;6.00;;
63930;SDS011;50111;48.114;-2.066;2022-09-01T10:21:40;7.45;;;5.00;;
63930;SDS011;50111;48.114;-2.066;2022-09-01T10:26:56;7.53;;;4.65;;
63930;SDS011;50111;48.114;-2.066;2022-09-01T10:29:36;10.55;;;5.53;;
63930;SDS011;50111;48.114;-2.066;2022-09-01T10:32:08;10.07;;;4.75;;
63930;SDS011;50111;48.114;-2.066;2022-09-01T10:34:35;8.27;;;5.47;;
63930;SDS011;50111;48.114;-2.066;2022-09-01T10:37:02;11.10;;;5.70;;
63930;SDS011;50111;48.114;-2.066;2022-09-01T10:39:29;11.10;;;5.55;;
63930;SDS011;50111;48.114;-2.066;2022-09-01T10:41:55;7.68;;;5.22;;
63930;SDS011;50111;48.114;-2.066;2022-09-01T10:44:29;10.13;;;5.38;;
63930;SDS011;50111;48.114;-2.066;2022-09-01T10:46:59;8.38;;;5.05;;
63930;SDS011;50111;48.114;-2.066;2022-09-01T10:51:52;8.98;;;4.68;;
63930;SDS011;50111;48.114;-2.066;2022-09-01T10:57:10;7.93;;;4.95;;
63930;SDS011;50111;48.114;-2.066;2022-09-01T10:59:37;9.15;;;4.82;;
63930;SDS011;50111;48.114;-2.066;2022-09-01T11:07:04;9.02;;;4.93;;
63930;SDS011;50111;48.114;-2.066;2022-09-01T11:14:51;10.27;;;5.15;;
63930;SDS011;50111;48.114;-2.066;2022-09-01T11:17:19;7.78;;;4.40;;
63930;SDS011;50111;48.114;-2.066;2022-09-01T11:20:28;7.25;;;4.68;;
63930;SDS011;50111;48.114;-2.066;2022-09-01T11:30:39;6.90;;;4.82;;
63930;SDS011;50111;48.114;-2.066;2022-09-01T11:33:10;8.45;;;5.07;;
63930;SDS011;50111;48.114;-2.066;2022-09-01T11:35:38;6.78;;;4.15;;
63930;SDS011;50111;48.114;-2.066;2022-09-01T11:38:05;13.15;;;5.03;;
63930;SDS011;50111;48.114;-2.066;2022-09-01T11:40:33;8.77;;;4.95;;
63930;SDS011;50111;48.114;-2.066;2022-09-01T11:43:02;8.77;;;4.80;;
63930;SDS011;50111;48.114;-2.066;2022-09-01T11:45:30;10.43;;;4.97;;
63930;SDS011;50111;48.114;-2.066;2022-09-01T11:47:59;9.60;;;4.93;;
63930;SDS011;50111;48.114;-2.066;2022-09-01T11:50:31;11.48;;;5.60;;
63930;SDS011;50111;48.114;-2.066;2022-09-01T11:55:26;9.45;;;5.40;;
63930;SDS011;50111;48.114;-2.066;2022-09-01T11:57:53;7.35;;;5.30;;
63930;SDS011;50111;48.114;-2.066;2022-09-01T12:00:24;7.53;;;4.80;;
63930;SDS011;50111;48.114;-2.066;2022-09-01T12:02:51;8.77;;;5.32;;
63930;SDS011;50111;48.114;-2.066;2022-09-01T12:05:35;11.18;;;5.00;;
63930;SDS011;50111;48.114;-2.066;2022-09-01T12:08:10;9.27;;;4.88;;
63930;SDS011;50111;48.114;-2.066;2022-09-01T12:10:41;10.00;;;5.65;;
63930;SDS011;50111;48.114;-2.066;2022-09-01T12:15:35;8.07;;;5.30;;
63930;SDS011;50111;48.114;-2.066;2022-09-01T12:20:35;9.68;;;5.70;;
63930;SDS011;50111;48.114;-2.066;2022-09-01T12:23:16;9.68;;;6.25;;
63930;SDS011;50111;48.114;-2.066;2022-09-01T12:25:43;10.18;;;5.82;;
63930;SDS011;50111;48.114;-2.066;2022-09-01T12:28:09;14.38;;;5.88;;
63930;SDS011;50111;48.114;-2.066;2022-09-01T12:30:36;9.38;;;6.22;;
63930;SDS011;50111;48.114;-2.066;2022-09-01T12:33:06;10.65;;;5.50;;
63930;SDS011;50111;48.114;-2.066;2022-09-01T12:35:32;9.63;;;5.30;;
63930;SDS011;50111;48.114;-2.066;2022-09-01T12:40:43;10.18;;;6.13;;
63930;SDS011;50111;48.114;-2.066;2022-09-01T12:43:10;10.50;;;6.15;;
63930;SDS011;50111;48.114;-2.066;2022-09-01T12:45:40;12.38;;;6.72;;
63930;SDS011;50111;48.114;-2.066;2022-09-01T12:48:22;15.80;;;7.22;;
63930;SDS011;50111;48.114;-2.066;2022-09-01T12:50:48;9.13;;;6.60;;
63930;SDS011;50111;48.114;-2.066;2022-09-01T12:53:17;9.95;;;6.90;;
63930;SDS011;50111;48.114;-2.066;2022-09-01T12:55:53;11.82;;;6.95;;
63930;SDS011;50111;48.114;-2.066;2022-09-01T12:58:20;12.48;;;7.00;;
63930;SDS011;50111;48.114;-2.066;2022-09-01T13:00:53;10.23;;;6.05;;
63930;SDS011;50111;48.114;-2.066;2022-09-01T13:05:55;12.30;;;6.82;;
63930;SDS011;50111;48.114;-2.066;2022-09-01T13:08:24;8.38;;;5.63;;
63930;SDS011;50111;48.114;-2.066;2022-09-01T13:10:57;8.57;;;6.07;;
63930;SDS011;50111;48.114;-2.066;2022-09-01T13:13:25;9.32;;;5.93;;
63930;SDS011;50111;48.114;-2.066;2022-09-01T13:15:53;10.18;;;6.07;;
63930;SDS011;50111;48.114;-2.066;2022-09-01T13:18:20;9.90;;;6.10;;
63930;SDS011;50111;48.114;-2.066;2022-09-01T13:20:47;11.88;;;5.60;;
63930;SDS011;50111;48.114;-2.066;2022-09-01T13:23:13;9.65;;;5.30;;
63930;SDS011;50111;48.114;-2.066;2022-09-01T13:25:40;9.85;;;5.60;;
63930;SDS011;50111;48.114;-2.066;2022-09-01T13:28:08;10.05;;;5.68;;
63930;SDS011;50111;48.114;-2.066;2022-09-01T13:30:35;11.85;;;6.22;;
63930;SDS011;50111;48.114;-2.066;2022-09-01T13:33:01;11.93;;;6.40;;
63930;SDS011;50111;48.114;-2.066;2022-09-01T13:35:28;14.13;;;6.63;;
63930;SDS011;50111;48.114;-2.066;2022-09-01T13:37:54;10.55;;;6.00;;
63930;SDS011;50111;48.114;-2.066;2022-09-01T13:40:20;9.90;;;6.50;;
63930;SDS011;50111;48.114;-2.066;2022-09-01T13:42:50;8.05;;;5.20;;
63930;SDS011;50111;48.114;-2.066;2022-09-01T13:45:17;9.27;;;5.70;;
63930;SDS011;50111;48.114;-2.066;2022-09-01T13:47:44;8.55;;;5.65;;
63930;SDS011;50111;48.114;-2.066;2022-09-01T13:50:11;10.52;;;5.55;;
63930;SDS011;50111;48.114;-2.066;2022-09-01T13:52:41;13.15;;;6.55;;
63930;SDS011;50111;48.114;-2.066;2022-09-01T13:55:11;9.90;;;5.93;;
63930;SDS011;50111;48.114;-2.066;2022-09-01T13:57:37;8.85;;;5.88;;
63930;SDS011;50111;48.114;-2.066;2022-09-01T14:00:04;12.05;;;5.78;;
63930;SDS011;50111;48.114;-2.066;2022-09-01T14:02:32;10.35;;;5.50;;
63930;SDS011;50111;48.114;-2.066;2022-09-01T14:04:59;9.65;;;5.75;;
63930;SDS011;50111;48.114;-2.066;2022-09-01T14:07:25;10.40;;;6.35;;
63930;SDS011;50111;48.114;-2.066;2022-09-01T14:09:51;8.50;;;6.30;;
63930;SDS011;50111;48.114;-2.066;2022-09-01T14:12:17;12.75;;;6.70;;
63930;SDS011;50111;48.114;-2.066;2022-09-01T14:14:43;10.02;;;5.97;;
63930;SDS011;50111;48.114;-2.066;2022-09-01T14:17:09;9.95;;;5.65;;
63930;SDS011;50111;48.114;-2.066;2022-09-01T14:19:35;8.75;;;5.18;;
63930;SDS011;50111;48.114;-2.066;2022-09-01T14:22:01;10.77;;;4.38;;
63930;SDS011;50111;48.114;-2.066;2022-09-01T14:24:30;8.13;;;3.97;;
63930;SDS011;50111;48.114;-2.066;2022-09-01T14:26:56;8.15;;;4.05;;
63930;SDS011;50111;48.114;-2.066;2022-09-01T14:29:22;5.32;;;3.80;;
63930;SDS011;50111;48.114;-2.066;2022-09-01T14:31:48;7.03;;;4.50;;
63930;SDS011;50111;48.114;-2.066;2022-09-01T14:34:14;8.48;;;4.25;;
63930;SDS011;50111;48.114;-2.066;2022-09-01T14:36:41;7.90;;;4.00;;
63930;SDS011;50111;48.114;-2.066;2022-09-01T14:39:07;7.10;;;4.32;;
63930;SDS011;50111;48.114;-2.066;2022-09-01T14:41:33;6.22;;;4.28;;
63930;SDS011;50111;48.114;-2.066;2022-09-01T14:43:59;8.15;;;4.38;;
63930;SDS011;50111;48.114;-2.066;2022-09-01T14:46:26;5.40;;;4.00;;
63930;SDS011;50111;48.114;-2.066;2022-09-01T14:48:54;7.50;;;4.00;;
63930;SDS011;50111;48.114;-2.066;2022-09-01T14:51:24;8.73;;;4.00;;
63930;SDS011;50111;48.114;-2.066;2022-09-01T14:53:51;7.00;;;4.53;;
63930;SDS011;50111;48.114;-2.066;2022-09-01T14:56:18;7.60;;;3.83;;
63930;SDS011;50111;48.114;-2.066;2022-09-01T14:58:44;7.03;;;3.97;;
63930;SDS011;50111;48.114;-2.066;2022-09-01T15:01:14;10.98;;;4.53;;
63930;SDS011;50111;48.114;-2.066;2022-09-01T15:03:41;7.18;;;4.88;;
63930;SDS011;50111;48.114;-2.066;2022-09-01T15:06:07;6.53;;;5.07;;
63930;SDS011;50111;48.114;-2.066;2022-09-01T15:08:33;9.85;;;4.55;;
63930;SDS011;50111;48.114;-2.066;2022-09-01T15:11:00;7.68;;;4.80;;
63930;SDS011;50111;48.114;-2.066;2022-09-01T15:13:26;8.65;;;4.93;;
63930;SDS011;50111;48.114;-2.066;2022-09-01T15:15:52;7.95;;;4.53;;
63930;SDS011;50111;48.114;-2.066;2022-09-01T15:18:18;8.32;;;4.95;;
63930;SDS011;50111;48.114;-2.066;2022-09-01T15:20:44;8.25;;;4.30;;
63930;SDS011;50111;48.114;-2.066;2022-09-01T15:23:11;7.90;;;5.00;;
63930;SDS011;50111;48.114;-2.066;2022-09-01T15:25:37;6.70;;;4.68;;
63930;SDS011;50111;48.114;-2.066;2022-09-01T15:28:03;9.40;;;5.00;;
63930;SDS011;50111;48.114;-2.066;2022-09-01T15:30:30;6.68;;;4.55;;
63930;SDS011;50111;48.114;-2.066;2022-09-01T15:32:56;6.57;;;4.70;;
63930;SDS011;50111;48.114;-2.066;2022-09-01T15:35:22;7.68;;;5.05;;
63930;SDS011;50111;48.114;-2.066;2022-09-01T15:37:49;7.85;;;4.85;;
63930;SDS011;50111;48.114;-2.066;2022-09-01T15:40:16;7.88;;;4.82;;
63930;SDS011;50111;48.114;-2.066;2022-09-01T15:42:43;8.65;;;4.78;;
63930;SDS011;50111;48.114;-2.066;2022-09-01T15:45:11;7.55;;;4.20;;
63930;SDS011;50111;48.114;-2.066;2022-09-01T15:47:38;7.00;;;4.63;;
63930;SDS011;50111;48.114;-2.066;2022-09-01T15:50:05;6.68;;;4.13;;
63930;SDS011;50111;48.114;-2.066;2022-09-01T15:52:31;8.15;;;3.92;;